You are listening to:
KMDW Tower - Chicago, Illinois, United States

KMDW 251053Z 28010KT 10SM FEW250 11/08 A3001 RMK AO2 SLP157 T01110078

If stream doesn't start automatically press the play button
If stream stops then reload player then press play